Billie H — WCY4992 — position and weather

sailwx.info

Track history (hours):
 
Tides and Currents Weather Stations Pressure Air Temp Water Temp Dewpoint Dewpoint Depression Visibility Wind Speed Wind Dir Waves Ship Positions

Billie H

Owner: BOYER TOWING INC, KETCHIKAN, AK. More information available from US FCC via Universal Licensing System and Coast Guard Vessel Documentation Center.

Last reported at 2017-May-21 18:20 UTC. Time now 2017-May-22 23:23 UTC.
Position N 47°40' W 122°23'.

Type: Tow > 200 m length. MMSI: 366751770.

Date/timePositionNaut miles runAvg speedWind from/ knotsBaromVisibWave heightAir tempDewpointWater temp
2017-May-21 18:20N 47°40' W 122°23'0 0.0
2017-May-21 17:54N 47°40' W 122°23'0 0.0
2017-May-21 17:30N 47°40' W 122°23'0 0.0
2017-May-21 17:00N 47°40' W 122°23'0 0.0
2017-May-21 16:30N 47°40' W 122°23'0 0.0
2017-May-21 16:00N 47°40' W 122°23'0 0.5
2017-May-21 15:30N 47°40' W 122°24'3 6.8
2017-May-21 15:00N 47°42' W 122°28'3 5.9
2017-May-21 14:30N 47°43' W 122°32'0 0.0
2017-May-21 13:30N 47°43' W 122°32'0 0.4
2017-May-21 13:00N 47°43' W 122°32'3 6.4
2017-May-21 12:30N 47°44' W 122°28'5 9.2
2017-May-21 12:00N 47°49' W 122°28'4 8.5
2017-May-21 11:30N 47°53' W 122°30'4 7.4
2017-May-21 11:00N 47°56' W 122°33'4 7.6
2017-May-21 10:29N 47°59' W 122°37'8 8.3
2017-May-21 09:28N 48°07' W 122°41'5 9.0
2017-May-21 08:57N 48°10' W 122°47'4 9.5
2017-May-21 08:29N 48°11' W 122°53'4 9.3
2017-May-21 08:00N 48°10' W 122°60'4 7.4
2017-May-21 07:30N 48°09' W 123°05'0 0.1
2017-May-21 07:00N 48°09' W 123°05'0 0.0
2017-May-21 06:30N 48°09' W 123°05'0 0.0
2017-May-21 06:00N 48°09' W 123°05'0 0.0
2017-May-21 05:29N 48°09' W 123°05'0 0.1
2017-May-21 05:00N 48°09' W 123°05'0 0.0
2017-May-21 04:30N 48°09' W 123°05'0 0.6
2017-May-21 04:01N 48°09' W 123°05'3 6.4
2017-May-21 03:30N 48°12' W 123°08'5 9.3
2017-May-21 02:57N 48°13' W 123°16'4 9.6
2017-May-21 02:30N 48°13' W 123°22'5 9.3
2017-May-21 02:00N 48°13' W 123°29'4 8.4
2017-May-21 01:29N 48°12' W 123°36'4 8.2
2017-May-21 01:00N 48°12' W 123°41'4 8.6
2017-May-21 00:30N 48°12' W 123°48'4 8.4
2017-May-20 23:59N 48°13' W 123°54'4 7.8
2017-May-20 23:29N 48°14' W 124°00'4 8.0
2017-May-20 23:00N 48°15' W 124°05'4 8.0
2017-May-20 22:30N 48°17' W 124°11'4 8.5
2017-May-20 22:00N 48°19' W 124°17'4 8.8
2017-May-20 21:30N 48°21' W 124°22'5 9.0
2017-May-20 21:00N 48°23' W 124°28'4 8.8
2017-May-20 20:30N 48°25' W 124°34'4 8.5
2017-May-20 20:00N 48°27' W 124°40'4 8.2
2017-May-20 19:30N 48°27' W 124°46'5 9.3
2017-May-20 19:00N 48°24' W 124°51'5 8.9
2017-May-20 18:27N 48°19' W 124°54'4 9.0
2017-May-20 18:00N 48°15' W 124°57'67 8.8
2017-May-20 10:24N 47°10' W 124°35'4 9.1
2017-May-20 10:00N 47°06' W 124°34'5 9.2
2017-May-20 09:30N 47°02' W 124°32'5 9.1
2017-May-20 09:00N 46°58' W 124°31'4 8.9
2017-May-20 08:31N 46°53' W 124°29'4 8.6
2017-May-20 08:01N 46°49' W 124°28'4 8.3
2017-May-20 07:31N 46°45' W 124°27'4 8.5
2017-May-20 07:01N 46°41' W 124°26'4 8.7
2017-May-20 06:31N 46°36' W 124°25'5 9.0
2017-May-20 06:01N 46°32' W 124°24'4 8.8
2017-May-20 05:31N 46°28' W 124°22'5 9.0
2017-May-20 05:01N 46°23' W 124°20'5 9.5
2017-May-20 04:31N 46°19' W 124°19'5 9.4
2017-May-20 04:01N 46°14' W 124°18'5 9.1
2017-May-20 03:31N 46°13' W 124°12'5 9.2
2017-May-20 03:01N 46°15' W 124°06'4 7.9
2017-May-20 02:31N 46°15' W 123°60'4 8.6
2017-May-20 02:00N 46°12' W 123°55'4 8.5
2017-May-20 01:30N 46°12' W 123°49'4 9.0
2017-May-20 01:01N 46°14' W 123°44'5 9.7
2017-May-20 00:31N 46°16' W 123°37'510.7
2017-May-20 00:00N 46°16' W 123°29'510.4
2017-May-19 23:31N 46°12' W 123°26'611.1
2017-May-19 23:00N 46°09' W 123°19'612.3
2017-May-19 22:30N 46°11' W 123°11'611.7
2017-May-19 22:01N 46°09' W 123°03'612.4
2017-May-19 21:30N 46°06' W 122°56'611.7
2017-May-19 21:01N 46°01' W 122°51'611.6
2017-May-19 20:31N 45°55' W 122°48'611.6
2017-May-19 20:00N 45°49' W 122°48'611.6
2017-May-19 19:31N 45°44' W 122°46'510.7
2017-May-19 19:00N 45°38' W 122°47'1 1.4
2017-May-19 18:30N 45°38' W 122°47'1 1.4
2017-May-19 18:01N 45°37' W 122°47'0 0.1
2017-May-19 17:31N 45°37' W 122°47'0 0.1
2017-May-19 17:00N 45°37' W 122°47'0 0.0
2017-May-19 16:30N 45°37' W 122°47'0 0.0
2017-May-19 16:00N 45°37' W 122°47'0 0.0
2017-May-19 15:31N 45°37' W 122°47'0 0.0
2017-May-19 15:00N 45°37' W 122°47'0 0.0
2017-May-19 14:00N 45°37' W 122°47'0 0.0
2017-May-19 13:30N 45°37' W 122°47'0 0.0
2017-May-19 13:01N 45°37' W 122°47'0 0.0
2017-May-19 12:31N 45°37' W 122°47'0 0.0
2017-May-19 12:00N 45°37' W 122°47'0 0.0
2017-May-19 11:30N 45°37' W 122°47'0 0.0
2017-May-19 11:01N 45°37' W 122°47'0 0.0
2017-May-19 10:31N 45°37' W 122°47'0 0.0
2017-May-19 10:00N 45°37' W 122°47'0 0.0
2017-May-19 09:30N 45°37' W 122°47'0 0.0
2017-May-19 08:59N 45°37' W 122°47'0 0.0
2017-May-19 08:30N 45°37' W 122°47'0 0.0
2017-May-19 08:00N 45°37' W 122°47'0 0.0
2017-May-19 07:31N 45°37' W 122°47'0 0.0
2017-May-19 07:01N 45°37' W 122°47'0 0.0
2017-May-19 06:30N 45°37' W 122°47'0 0.0
2017-May-19 06:00N 45°37' W 122°47'0 0.0
2017-May-19 05:31N 45°37' W 122°47'0 0.0
2017-May-19 05:00N 45°37' W 122°47'0 0.0
2017-May-19 04:30N 45°37' W 122°47'0 0.0
2017-May-19 04:00N 45°37' W 122°47'0 0.0
2017-May-19 03:30N 45°37' W 122°47'0 0.0
2017-May-19 03:00N 45°37' W 122°47'0 0.0
2017-May-19 02:30N 45°37' W 122°47'0 0.0
2017-May-19 02:00N 45°37' W 122°47'0 0.0
2017-May-19 01:30N 45°37' W 122°47'0 0.0
2017-May-19 01:00N 45°37' W 122°47'0 0.0
2017-May-19 00:30N 45°37' W 122°47'0 0.0
2017-May-19 00:00N 45°37' W 122°47'0 0.0
2017-May-18 23:30N 45°37' W 122°47'0 0.0
2017-May-18 23:00N 45°37' W 122°47'0 0.0
2017-May-18 22:30N 45°37' W 122°47'0 0.0
2017-May-18 22:01N 45°37' W 122°47'0 0.0
2017-May-18 21:30N 45°37' W 122°47'0 0.0
2017-May-18 21:00N 45°37' W 122°47'0 0.0
2017-May-18 20:31N 45°37' W 122°47'0 0.0
2017-May-18 20:00N 45°37' W 122°47'0 0.0
2017-May-18 19:30N 45°37' W 122°47'0 0.0
2017-May-18 19:01N 45°37' W 122°47'0 0.0
2017-May-18 18:30N 45°37' W 122°47'0 0.0
2017-May-18 18:00N 45°37' W 122°47'0 0.0
2017-May-18 17:30N 45°37' W 122°47'0 0.0
2017-May-18 17:00N 45°37' W 122°47'0 0.0
2017-May-18 16:30N 45°37' W 122°47'0 0.0
2017-May-18 16:00N 45°37' W 122°47'0 0.0
2017-May-18 15:30N 45°37' W 122°47'0 0.0
2017-May-18 15:00N 45°37' W 122°47'0 0.0
2017-May-18 14:30N 45°37' W 122°47'0 0.0
2017-May-18 13:31N 45°37' W 122°47'0 0.0
2017-May-18 13:00N 45°37' W 122°47'0 0.0
2017-May-18 12:30N 45°37' W 122°47'0 0.0
2017-May-18 12:01N 45°37' W 122°47'0 0.0
2017-May-18 11:31N 45°37' W 122°47'0 0.0
2017-May-18 11:00N 45°37' W 122°47'0 0.0
2017-May-18 10:30N 45°37' W 122°47'0 0.0
2017-May-18 10:00N 45°37' W 122°47'0 0.0
2017-May-18 09:30N 45°37' W 122°47'0 0.0
2017-May-18 09:01N 45°37' W 122°47'0 0.0
2017-May-18 08:30N 45°37' W 122°47'0 0.0
2017-May-18 08:00N 45°37' W 122°47'0 0.0
2017-May-18 06:51N 45°37' W 122°47'0 0.0
2017-May-18 06:30N 45°37' W 122°47'0 0.0
2017-May-18 06:00N 45°37' W 122°47'0 0.0
2017-May-18 05:31N 45°37' W 122°47'0 0.0
2017-May-18 04:59N 45°37' W 122°47'0 0.0
2017-May-18 04:30N 45°37' W 122°47'0 0.0
2017-May-18 04:00N 45°37' W 122°47'0 0.0
2017-May-18 03:30N 45°37' W 122°47'0 0.0
2017-May-18 03:01N 45°37' W 122°47'0 0.0
2017-May-18 02:31N 45°37' W 122°47'0 0.0
2017-May-18 02:00N 45°37' W 122°47'0 0.0
2017-May-18 01:30N 45°37' W 122°47'0 0.0
2017-May-18 01:00N 45°37' W 122°47'0 0.0
2017-May-18 00:30N 45°37' W 122°47'0 0.0
2017-May-18 00:01N 45°37' W 122°47'0 0.0
2017-May-17 23:27N 45°37' W 122°47'0 0.0
2017-May-17 23:00N 45°37' W 122°47'0 0.0
2017-May-17 22:30N 45°37' W 122°47'0 0.0
2017-May-17 22:01N 45°37' W 122°47'0 0.0
2017-May-17 21:30N 45°37' W 122°47'0 0.0
2017-May-17 21:00N 45°37' W 122°47'0 0.0
2017-May-17 20:30N 45°37' W 122°47'0 0.0
2017-May-17 19:44N 45°37' W 122°47'0 0.0
2017-May-17 19:30N 45°37' W 122°47'0 0.0
2017-May-17 19:01N 45°37' W 122°47'0 0.0
2017-May-17 18:30N 45°37' W 122°47'0 0.0
2017-May-17 18:00N 45°37' W 122°47'0 0.0
2017-May-17 17:30N 45°37' W 122°47'0 0.0
2017-May-17 17:01N 45°37' W 122°47'0 0.0
2017-May-17 16:30N 45°37' W 122°47'0 0.1
2017-May-17 16:00N 45°37' W 122°47'1 1.0
2017-May-17 15:30N 45°38' W 122°47'2 4.6
2017-May-17 15:00N 45°40' W 122°46'4 4.1
2017-May-17 14:00N 45°44' W 122°46'2 4.0
2017-May-17 13:30N 45°46' W 122°46'2 4.1
2017-May-17 13:01N 45°48' W 122°47'2 3.9
2017-May-17 12:31N 45°50' W 122°48'2 3.9
2017-May-17 12:00N 45°52' W 122°47'2 3.6
2017-May-17 11:30N 45°53' W 122°48'2 3.8
2017-May-17 11:01N 45°55' W 122°48'2 3.8
2017-May-17 10:30N 45°57' W 122°48'2 3.7
2017-May-17 10:01N 45°59' W 122°50'2 4.0
2017-May-17 09:30N 46°00' W 122°51'2 3.8
2017-May-17 09:00N 46°02' W 122°53'2 3.7
2017-May-17 08:30N 46°04' W 122°53'2 3.6
2017-May-17 08:01N 46°05' W 122°55'2 3.3
2017-May-17 07:30N 46°06' W 122°57'2 3.6
2017-May-17 07:01N 46°07' W 122°59'2 3.7
2017-May-17 06:31N 46°08' W 123°01'2 3.4
2017-May-17 06:00N 46°09' W 123°03'2 3.6
2017-May-17 05:31N 46°10' W 123°05'2 3.9
2017-May-17 05:00N 46°11' W 123°08'2 3.8
2017-May-17 04:31N 46°11' W 123°10'2 3.7
2017-May-17 04:00N 46°10' W 123°13'2 4.1
2017-May-17 03:31N 46°09' W 123°15'2 4.0
2017-May-17 03:01N 46°09' W 123°18'2 4.7
2017-May-17 02:31N 46°09' W 123°21'2 4.6
2017-May-17 02:00N 46°10' W 123°24'2 4.6
2017-May-17 01:30N 46°12' W 123°26'3 5.1
2017-May-17 01:01N 46°14' W 123°26'3 5.2
2017-May-17 00:31N 46°16' W 123°28'3 5.6
2017-May-17 00:01N 46°16' W 123°32'3 5.8
2017-May-16 23:31N 46°15' W 123°37'3 5.9
2017-May-16 23:01N 46°15' W 123°41'3 6.3
2017-May-16 22:31N 46°13' W 123°45'3 6.6
2017-May-16 22:01N 46°12' W 123°49'3 6.6
2017-May-16 21:31N 46°11' W 123°54'3 6.3
2017-May-16 21:01N 46°13' W 123°58'3 6.1
2017-May-16 20:31N 46°15' W 124°01'2 3.6
2017-May-16 20:01N 46°15' W 124°03'1 1.7
2017-May-16 19:31N 46°15' W 124°05'2 3.6
2017-May-16 19:00N 46°14' W 124°07'2 3.4
2017-May-16 18:31N 46°13' W 124°09'1 2.0
2017-May-16 18:01N 46°13' W 124°10'1 2.7
2017-May-16 17:31N 46°12' W 124°11'1 2.9
2017-May-16 17:00N 46°12' W 124°13'2 3.3
2017-May-16 16:30N 46°13' W 124°15'1 2.1
2017-May-16 16:01N 46°14' W 124°17'2 3.7
2017-May-16 15:31N 46°15' W 124°18'2 4.0
2017-May-16 15:01N 46°17' W 124°19'2 3.9
2017-May-16 14:31N 46°19' W 124°19'4 3.8
2017-May-16 13:31N 46°23' W 124°21'2 3.8
2017-May-16 13:01N 46°25' W 124°21'2 5.0
2017-May-16 12:31N 46°27' W 124°22'3 6.8
2017-May-16 12:00N 46°30' W 124°23'4 7.2
2017-May-16 11:31N 46°34' W 124°24'4 7.5
2017-May-16 11:00N 46°38' W 124°25'4 7.5
2017-May-16 10:31N 46°41' W 124°26'4 7.4
2017-May-16 10:01N 46°45' W 124°27'4 7.3
2017-May-16 09:30N 46°49' W 124°28'4 7.2
2017-May-16 09:01N 46°52' W 124°29'3 6.9
2017-May-16 08:31N 46°55' W 124°30'3 6.9
2017-May-16 08:00N 46°59' W 124°31'3 6.8
2017-May-16 07:30N 47°02' W 124°33'3 6.7
2017-May-16 07:00N 47°05' W 124°34'4 7.0
2017-May-16 06:30N 47°09' W 124°35'69 6.0
2017-May-15 18:57N 48°16' W 124°57'3 6.6
2017-May-15 18:30N 48°19' W 124°55'3 6.6
2017-May-15 18:00N 48°22' W 124°52'4 7.3
2017-May-15 17:30N 48°25' W 124°48'4 7.2
2017-May-15 17:00N 48°26' W 124°43'4 7.7
2017-May-15 16:30N 48°25' W 124°38'4 7.9
2017-May-15 16:00N 48°23' W 124°33'18 7.3
2017-May-15 13:36N 48°16' W 124°09'1 7.0
2017-May-15 13:30N 48°16' W 124°08'4 7.2
2017-May-15 13:00N 48°14' W 124°03'3 6.5
2017-May-15 12:30N 48°13' W 123°59'3 6.1
2017-May-15 12:00N 48°12' W 123°54'3 6.1
2017-May-15 11:30N 48°12' W 123°50'4 7.1
2017-May-15 11:00N 48°12' W 123°44'4 7.5
2017-May-15 10:30N 48°14' W 123°39'3 6.9
2017-May-15 10:00N 48°15' W 123°35'4 7.1
2017-May-15 09:30N 48°17' W 123°30'4 7.7
2017-May-15 09:00N 48°20' W 123°27'4 7.7
2017-May-15 08:30N 48°23' W 123°23'4 8.4
2017-May-15 08:00N 48°23' W 123°17'4 7.1
2017-May-15 07:30N 48°25' W 123°12'4 8.1
2017-May-15 07:00N 48°29' W 123°13'3 6.7
2017-May-15 06:30N 48°33' W 123°13'4 8.1
2017-May-15 06:00N 48°37' W 123°15'4 8.1
2017-May-15 05:30N 48°40' W 123°16'4 7.4
2017-May-15 05:00N 48°44' W 123°18'4 7.7
2017-May-15 04:30N 48°47' W 123°21'4 7.3
2017-May-15 04:00N 48°50' W 123°25'4 7.0
2017-May-15 03:27N 48°53' W 123°27'3 7.1
2017-May-15 02:58N 48°56' W 123°31'3 7.0
2017-May-15 02:30N 48°58' W 123°34'3 5.2
2017-May-15 01:53N 49°01' W 123°35'2 3.7
2017-May-15 01:14N 49°04' W 123°34'1 3.7
2017-May-15 00:57N 49°05' W 123°34'2 3.2
2017-May-15 00:20N 49°07' W 123°35'1 3.1
2017-May-14 23:56N 49°08' W 123°36'3 4.6
2017-May-14 23:20N 49°10' W 123°37'2 7.0
2017-May-14 23:00N 49°12' W 123°40'5 7.2
2017-May-14 22:20N 49°15' W 123°46'3 7.4
2017-May-14 21:54N 49°17' W 123°49'28 6.8
2017-May-14 17:52N 49°34' W 124°23'3 7.0
2017-May-14 17:30N 49°36' W 124°26'3 6.8
2017-May-14 17:00N 49°38' W 124°30'3 6.7
2017-May-14 16:30N 49°40' W 124°34'3 6.7
2017-May-14 16:00N 49°42' W 124°38'3 6.6
2017-May-14 15:30N 49°44' W 124°42'3 6.6
2017-May-14 15:00N 49°46' W 124°46'3 6.6
2017-May-14 14:30N 49°48' W 124°50'3 6.7
2017-May-14 14:01N 49°50' W 124°54'3 7.0
2017-May-14 13:30N 49°52' W 124°58'4 7.0
2017-May-14 12:59N 49°55' W 125°03'3 7.0
2017-May-14 12:30N 49°57' W 125°07'4 8.0
2017-May-14 12:01N 49°59' W 125°12'510.4
2017-May-14 11:30N 50°04' W 125°15'4 8.9
2017-May-14 11:00N 50°07' W 125°20'4 7.7
2017-May-14 10:30N 50°11' W 125°22'3 6.9
2017-May-14 10:01N 50°14' W 125°23'4 7.0
2017-May-14 09:28N 50°18' W 125°25'50 5.5
2017-May-14 00:23N 50°32' W 126°40'19 7.8
2017-May-13 21:54N 50°44' W 127°04'4 7.9
2017-May-13 21:21N 50°47' W 127°10'4 7.8
2017-May-13 20:54N 50°49' W 127°14'3 7.7
2017-May-13 20:30N 50°51' W 127°18'4 7.5
2017-May-13 20:00N 50°53' W 127°22'4 8.0
2017-May-13 19:30N 50°56' W 127°27'4 7.3
2017-May-13 19:00N 50°58' W 127°31'3 6.5
2017-May-13 18:30N 51°00' W 127°35'3 6.4
2017-May-13 18:00N 51°03' W 127°39'3 6.3
2017-May-13 17:30N 51°05' W 127°43'3 6.4
2017-May-13 17:00N 51°07' W 127°46'3 6.6
2017-May-13 16:30N 51°09' W 127°50'4 6.7
2017-May-13 15:58N 51°12' W 127°52'10 7.1
2017-May-13 14:35N 51°22' W 127°52'1 7.3
2017-May-13 14:28N 51°23' W 127°52'7 7.3
2017-May-13 13:30N 51°30' W 127°51'4 7.4
2017-May-13 13:01N 51°34' W 127°52'4 7.4
2017-May-13 12:31N 51°37' W 127°54'4 7.3
2017-May-13 12:00N 51°41' W 127°56'4 7.2
2017-May-13 11:30N 51°44' W 127°57'4 7.2
2017-May-13 11:00N 51°48' W 127°57'4 7.2
2017-May-13 10:30N 51°51' W 127°57'4 7.4
2017-May-13 10:00N 51°55' W 127°57'4 7.3
2017-May-13 09:30N 51°59' W 127°56'4 7.4
2017-May-13 08:57N 52°03' W 127°55'3 7.5
2017-May-13 08:29N 52°06' W 127°54'14 5.4
2017-May-13 05:54N 52°18' W 128°06'3 6.9
2017-May-13 05:30N 52°16' W 128°10'5 7.0
2017-May-13 04:46N 52°15' W 128°18'3 7.1
2017-May-13 04:24N 52°15' W 128°23'5 6.8
2017-May-13 03:44N 52°18' W 128°29'4 7.1
2017-May-13 03:14N 52°21' W 128°31'2 7.4
2017-May-13 02:59N 52°23' W 128°31'3 7.4
2017-May-13 02:30N 52°26' W 128°29'  
Track history (hours):
 
Tides and Currents Weather Stations Pressure Air Temp Water Temp Dewpoint Dewpoint Depression Visibility Wind Speed Wind Dir Waves Ship Positions

Billie H

Owner: BOYER TOWING INC, KETCHIKAN, AK. More information available from US FCC via Universal Licensing System and Coast Guard Vessel Documentation Center.

Last reported at 2017-May-21 18:20 UTC. Time now 2017-May-22 23:23 UTC.
Position N 47°40' W 122°23'.

Type: Tow > 200 m length. MMSI: 366751770.

Date/timePositionNaut miles runAvg speedWind from/ knotsBaromVisibWave heightAir tempDewpointWater temp
2017-May-21 18:20N 47°40' W 122°23'0 0.0
2017-May-21 17:54N 47°40' W 122°23'0 0.0
2017-May-21 17:30N 47°40' W 122°23'0 0.0
2017-May-21 17:00N 47°40' W 122°23'0 0.0
2017-May-21 16:30N 47°40' W 122°23'0 0.0
2017-May-21 16:00N 47°40' W 122°23'0 0.5
2017-May-21 15:30N 47°40' W 122°24'3 6.8
2017-May-21 15:00N 47°42' W 122°28'3 5.9
2017-May-21 14:30N 47°43' W 122°32'0 0.0
2017-May-21 13:30N 47°43' W 122°32'0 0.4
2017-May-21 13:00N 47°43' W 122°32'3 6.4
2017-May-21 12:30N 47°44' W 122°28'5 9.2
2017-May-21 12:00N 47°49' W 122°28'4 8.5
2017-May-21 11:30N 47°53' W 122°30'4 7.4
2017-May-21 11:00N 47°56' W 122°33'4 7.6
2017-May-21 10:29N 47°59' W 122°37'8 8.3
2017-May-21 09:28N 48°07' W 122°41'5 9.0
2017-May-21 08:57N 48°10' W 122°47'4 9.5
2017-May-21 08:29N 48°11' W 122°53'4 9.3
2017-May-21 08:00N 48°10' W 122°60'4 7.4
2017-May-21 07:30N 48°09' W 123°05'0 0.1
2017-May-21 07:00N 48°09' W 123°05'0 0.0
2017-May-21 06:30N 48°09' W 123°05'0 0.0
2017-May-21 06:00N 48°09' W 123°05'0 0.0
2017-May-21 05:29N 48°09' W 123°05'0 0.1
2017-May-21 05:00N 48°09' W 123°05'0 0.0
2017-May-21 04:30N 48°09' W 123°05'0 0.6
2017-May-21 04:01N 48°09' W 123°05'3 6.4
2017-May-21 03:30N 48°12' W 123°08'5 9.3
2017-May-21 02:57N 48°13' W 123°16'4 9.6
2017-May-21 02:30N 48°13' W 123°22'5 9.3
2017-May-21 02:00N 48°13' W 123°29'4 8.4
2017-May-21 01:29N 48°12' W 123°36'4 8.2
2017-May-21 01:00N 48°12' W 123°41'4 8.6
2017-May-21 00:30N 48°12' W 123°48'4 8.4
2017-May-20 23:59N 48°13' W 123°54'4 7.8
2017-May-20 23:29N 48°14' W 124°00'4 8.0
2017-May-20 23:00N 48°15' W 124°05'4 8.0
2017-May-20 22:30N 48°17' W 124°11'4 8.5
2017-May-20 22:00N 48°19' W 124°17'4 8.8
2017-May-20 21:30N 48°21' W 124°22'5 9.0
2017-May-20 21:00N 48°23' W 124°28'4 8.8
2017-May-20 20:30N 48°25' W 124°34'4 8.5
2017-May-20 20:00N 48°27' W 124°40'4 8.2
2017-May-20 19:30N 48°27' W 124°46'5 9.3
2017-May-20 19:00N 48°24' W 124°51'5 8.9
2017-May-20 18:27N 48°19' W 124°54'4 9.0
2017-May-20 18:00N 48°15' W 124°57'67 8.8
2017-May-20 10:24N 47°10' W 124°35'4 9.1
2017-May-20 10:00N 47°06' W 124°34'5 9.2
2017-May-20 09:30N 47°02' W 124°32'5 9.1
2017-May-20 09:00N 46°58' W 124°31'4 8.9
2017-May-20 08:31N 46°53' W 124°29'4 8.6
2017-May-20 08:01N 46°49' W 124°28'4 8.3
2017-May-20 07:31N 46°45' W 124°27'4 8.5
2017-May-20 07:01N 46°41' W 124°26'4 8.7
2017-May-20 06:31N 46°36' W 124°25'5 9.0
2017-May-20 06:01N 46°32' W 124°24'4 8.8
2017-May-20 05:31N 46°28' W 124°22'5 9.0
2017-May-20 05:01N 46°23' W 124°20'5 9.5
2017-May-20 04:31N 46°19' W 124°19'5 9.4
2017-May-20 04:01N 46°14' W 124°18'5 9.1
2017-May-20 03:31N 46°13' W 124°12'5 9.2
2017-May-20 03:01N 46°15' W 124°06'4 7.9
2017-May-20 02:31N 46°15' W 123°60'4 8.6
2017-May-20 02:00N 46°12' W 123°55'4 8.5
2017-May-20 01:30N 46°12' W 123°49'4 9.0
2017-May-20 01:01N 46°14' W 123°44'5 9.7
2017-May-20 00:31N 46°16' W 123°37'510.7
2017-May-20 00:00N 46°16' W 123°29'510.4
2017-May-19 23:31N 46°12' W 123°26'611.1
2017-May-19 23:00N 46°09' W 123°19'612.3
2017-May-19 22:30N 46°11' W 123°11'611.7
2017-May-19 22:01N 46°09' W 123°03'612.4
2017-May-19 21:30N 46°06' W 122°56'611.7
2017-May-19 21:01N 46°01' W 122°51'611.6
2017-May-19 20:31N 45°55' W 122°48'611.6
2017-May-19 20:00N 45°49' W 122°48'611.6
2017-May-19 19:31N 45°44' W 122°46'510.7
2017-May-19 19:00N 45°38' W 122°47'1 1.4
2017-May-19 18:30N 45°38' W 122°47'1 1.4
2017-May-19 18:01N 45°37' W 122°47'0 0.1
2017-May-19 17:31N 45°37' W 122°47'0 0.1
2017-May-19 17:00N 45°37' W 122°47'0 0.0
2017-May-19 16:30N 45°37' W 122°47'0 0.0
2017-May-19 16:00N 45°37' W 122°47'0 0.0
2017-May-19 15:31N 45°37' W 122°47'0 0.0
2017-May-19 15:00N 45°37' W 122°47'0 0.0
2017-May-19 14:00N 45°37' W 122°47'0 0.0
2017-May-19 13:30N 45°37' W 122°47'0 0.0
2017-May-19 13:01N 45°37' W 122°47'0 0.0
2017-May-19 12:31N 45°37' W 122°47'0 0.0
2017-May-19 12:00N 45°37' W 122°47'0 0.0
2017-May-19 11:30N 45°37' W 122°47'0 0.0
2017-May-19 11:01N 45°37' W 122°47'0 0.0
2017-May-19 10:31N 45°37' W 122°47'0 0.0
2017-May-19 10:00N 45°37' W 122°47'0 0.0
2017-May-19 09:30N 45°37' W 122°47'0 0.0
2017-May-19 08:59N 45°37' W 122°47'0 0.0
2017-May-19 08:30N 45°37' W 122°47'0 0.0
2017-May-19 08:00N 45°37' W 122°47'0 0.0
2017-May-19 07:31N 45°37' W 122°47'0 0.0
2017-May-19 07:01N 45°37' W 122°47'0 0.0
2017-May-19 06:30N 45°37' W 122°47'0 0.0
2017-May-19 06:00N 45°37' W 122°47'0 0.0
2017-May-19 05:31N 45°37' W 122°47'0 0.0
2017-May-19 05:00N 45°37' W 122°47'0 0.0
2017-May-19 04:30N 45°37' W 122°47'0 0.0
2017-May-19 04:00N 45°37' W 122°47'0 0.0
2017-May-19 03:30N 45°37' W 122°47'0 0.0
2017-May-19 03:00N 45°37' W 122°47'0 0.0
2017-May-19 02:30N 45°37' W 122°47'0 0.0
2017-May-19 02:00N 45°37' W 122°47'0 0.0
2017-May-19 01:30N 45°37' W 122°47'0 0.0
2017-May-19 01:00N 45°37' W 122°47'0 0.0
2017-May-19 00:30N 45°37' W 122°47'0 0.0
2017-May-19 00:00N 45°37' W 122°47'0 0.0
2017-May-18 23:30N 45°37' W 122°47'0 0.0
2017-May-18 23:00N 45°37' W 122°47'0 0.0
2017-May-18 22:30N 45°37' W 122°47'0 0.0
2017-May-18 22:01N 45°37' W 122°47'0 0.0
2017-May-18 21:30N 45°37' W 122°47'0 0.0
2017-May-18 21:00N 45°37' W 122°47'0 0.0
2017-May-18 20:31N 45°37' W 122°47'0 0.0
2017-May-18 20:00N 45°37' W 122°47'0 0.0
2017-May-18 19:30N 45°37' W 122°47'0 0.0
2017-May-18 19:01N 45°37' W 122°47'0 0.0
2017-May-18 18:30N 45°37' W 122°47'0 0.0
2017-May-18 18:00N 45°37' W 122°47'0 0.0
2017-May-18 17:30N 45°37' W 122°47'0 0.0
2017-May-18 17:00N 45°37' W 122°47'0 0.0
2017-May-18 16:30N 45°37' W 122°47'0 0.0
2017-May-18 16:00N 45°37' W 122°47'0 0.0
2017-May-18 15:30N 45°37' W 122°47'0 0.0
2017-May-18 15:00N 45°37' W 122°47'0 0.0
2017-May-18 14:30N 45°37' W 122°47'0 0.0
2017-May-18 13:31N 45°37' W 122°47'0 0.0
2017-May-18 13:00N 45°37' W 122°47'0 0.0
2017-May-18 12:30N 45°37' W 122°47'0 0.0
2017-May-18 12:01N 45°37' W 122°47'0 0.0
2017-May-18 11:31N 45°37' W 122°47'0 0.0
2017-May-18 11:00N 45°37' W 122°47'0 0.0
2017-May-18 10:30N 45°37' W 122°47'0 0.0
2017-May-18 10:00N 45°37' W 122°47'0 0.0
2017-May-18 09:30N 45°37' W 122°47'0 0.0
2017-May-18 09:01N 45°37' W 122°47'0 0.0
2017-May-18 08:30N 45°37' W 122°47'0 0.0
2017-May-18 08:00N 45°37' W 122°47'0 0.0
2017-May-18 06:51N 45°37' W 122°47'0 0.0
2017-May-18 06:30N 45°37' W 122°47'0 0.0
2017-May-18 06:00N 45°37' W 122°47'0 0.0
2017-May-18 05:31N 45°37' W 122°47'0 0.0
2017-May-18 04:59N 45°37' W 122°47'0 0.0
2017-May-18 04:30N 45°37' W 122°47'0 0.0
2017-May-18 04:00N 45°37' W 122°47'0 0.0
2017-May-18 03:30N 45°37' W 122°47'0 0.0
2017-May-18 03:01N 45°37' W 122°47'0 0.0
2017-May-18 02:31N 45°37' W 122°47'0 0.0
2017-May-18 02:00N 45°37' W 122°47'0 0.0
2017-May-18 01:30N 45°37' W 122°47'0 0.0
2017-May-18 01:00N 45°37' W 122°47'0 0.0
2017-May-18 00:30N 45°37' W 122°47'0 0.0
2017-May-18 00:01N 45°37' W 122°47'0 0.0
2017-May-17 23:27N 45°37' W 122°47'0 0.0
2017-May-17 23:00N 45°37' W 122°47'0 0.0
2017-May-17 22:30N 45°37' W 122°47'0 0.0
2017-May-17 22:01N 45°37' W 122°47'0 0.0
2017-May-17 21:30N 45°37' W 122°47'0 0.0
2017-May-17 21:00N 45°37' W 122°47'0 0.0
2017-May-17 20:30N 45°37' W 122°47'0 0.0
2017-May-17 19:44N 45°37' W 122°47'0 0.0
2017-May-17 19:30N 45°37' W 122°47'0 0.0
2017-May-17 19:01N 45°37' W 122°47'0 0.0
2017-May-17 18:30N 45°37' W 122°47'0 0.0
2017-May-17 18:00N 45°37' W 122°47'0 0.0
2017-May-17 17:30N 45°37' W 122°47'0 0.0
2017-May-17 17:01N 45°37' W 122°47'0 0.0
2017-May-17 16:30N 45°37' W 122°47'0 0.1
2017-May-17 16:00N 45°37' W 122°47'1 1.0
2017-May-17 15:30N 45°38' W 122°47'2 4.6
2017-May-17 15:00N 45°40' W 122°46'4 4.1
2017-May-17 14:00N 45°44' W 122°46'2 4.0
2017-May-17 13:30N 45°46' W 122°46'2 4.1
2017-May-17 13:01N 45°48' W 122°47'2 3.9
2017-May-17 12:31N 45°50' W 122°48'2 3.9
2017-May-17 12:00N 45°52' W 122°47'2 3.6
2017-May-17 11:30N 45°53' W 122°48'2 3.8
2017-May-17 11:01N 45°55' W 122°48'2 3.8
2017-May-17 10:30N 45°57' W 122°48'2 3.7
2017-May-17 10:01N 45°59' W 122°50'2 4.0
2017-May-17 09:30N 46°00' W 122°51'2 3.8
2017-May-17 09:00N 46°02' W 122°53'2 3.7
2017-May-17 08:30N 46°04' W 122°53'2 3.6
2017-May-17 08:01N 46°05' W 122°55'2 3.3
2017-May-17 07:30N 46°06' W 122°57'2 3.6
2017-May-17 07:01N 46°07' W 122°59'2 3.7
2017-May-17 06:31N 46°08' W 123°01'2 3.4
2017-May-17 06:00N 46°09' W 123°03'2 3.6
2017-May-17 05:31N 46°10' W 123°05'2 3.9
2017-May-17 05:00N 46°11' W 123°08'2 3.8
2017-May-17 04:31N 46°11' W 123°10'2 3.7
2017-May-17 04:00N 46°10' W 123°13'2 4.1
2017-May-17 03:31N 46°09' W 123°15'2 4.0
2017-May-17 03:01N 46°09' W 123°18'2 4.7
2017-May-17 02:31N 46°09' W 123°21'2 4.6
2017-May-17 02:00N 46°10' W 123°24'2 4.6
2017-May-17 01:30N 46°12' W 123°26'3 5.1
2017-May-17 01:01N 46°14' W 123°26'3 5.2
2017-May-17 00:31N 46°16' W 123°28'3 5.6
2017-May-17 00:01N 46°16' W 123°32'3 5.8
2017-May-16 23:31N 46°15' W 123°37'3 5.9
2017-May-16 23:01N 46°15' W 123°41'3 6.3
2017-May-16 22:31N 46°13' W 123°45'3 6.6
2017-May-16 22:01N 46°12' W 123°49'3 6.6
2017-May-16 21:31N 46°11' W 123°54'3 6.3
2017-May-16 21:01N 46°13' W 123°58'3 6.1
2017-May-16 20:31N 46°15' W 124°01'2 3.6
2017-May-16 20:01N 46°15' W 124°03'1 1.7
2017-May-16 19:31N 46°15' W 124°05'2 3.6
2017-May-16 19:00N 46°14' W 124°07'2 3.4
2017-May-16 18:31N 46°13' W 124°09'1 2.0
2017-May-16 18:01N 46°13' W 124°10'1 2.7
2017-May-16 17:31N 46°12' W 124°11'1 2.9
2017-May-16 17:00N 46°12' W 124°13'2 3.3
2017-May-16 16:30N 46°13' W 124°15'1 2.1
2017-May-16 16:01N 46°14' W 124°17'2 3.7
2017-May-16 15:31N 46°15' W 124°18'2 4.0
2017-May-16 15:01N 46°17' W 124°19'2 3.9
2017-May-16 14:31N 46°19' W 124°19'4 3.8
2017-May-16 13:31N 46°23' W 124°21'2 3.8
2017-May-16 13:01N 46°25' W 124°21'2 5.0
2017-May-16 12:31N 46°27' W 124°22'3 6.8
2017-May-16 12:00N 46°30' W 124°23'4 7.2
2017-May-16 11:31N 46°34' W 124°24'4 7.5
2017-May-16 11:00N 46°38' W 124°25'4 7.5
2017-May-16 10:31N 46°41' W 124°26'4 7.4
2017-May-16 10:01N 46°45' W 124°27'4 7.3
2017-May-16 09:30N 46°49' W 124°28'4 7.2
2017-May-16 09:01N 46°52' W 124°29'3 6.9
2017-May-16 08:31N 46°55' W 124°30'3 6.9
2017-May-16 08:00N 46°59' W 124°31'3 6.8
2017-May-16 07:30N 47°02' W 124°33'3 6.7
2017-May-16 07:00N 47°05' W 124°34'4 7.0
2017-May-16 06:30N 47°09' W 124°35'69 6.0
2017-May-15 18:57N 48°16' W 124°57'3 6.6
2017-May-15 18:30N 48°19' W 124°55'3 6.6
2017-May-15 18:00N 48°22' W 124°52'4 7.3
2017-May-15 17:30N 48°25' W 124°48'4 7.2
2017-May-15 17:00N 48°26' W 124°43'4 7.7
2017-May-15 16:30N 48°25' W 124°38'4 7.9
2017-May-15 16:00N 48°23' W 124°33'18 7.3
2017-May-15 13:36N 48°16' W 124°09'1 7.0
2017-May-15 13:30N 48°16' W 124°08'4 7.2
2017-May-15 13:00N 48°14' W 124°03'3 6.5
2017-May-15 12:30N 48°13' W 123°59'3 6.1
2017-May-15 12:00N 48°12' W 123°54'3 6.1
2017-May-15 11:30N 48°12' W 123°50'4 7.1
2017-May-15 11:00N 48°12' W 123°44'4 7.5
2017-May-15 10:30N 48°14' W 123°39'3 6.9
2017-May-15 10:00N 48°15' W 123°35'4 7.1
2017-May-15 09:30N 48°17' W 123°30'4 7.7
2017-May-15 09:00N 48°20' W 123°27'4 7.7
2017-May-15 08:30N 48°23' W 123°23'4 8.4
2017-May-15 08:00N 48°23' W 123°17'4 7.1
2017-May-15 07:30N 48°25' W 123°12'4 8.1
2017-May-15 07:00N 48°29' W 123°13'3 6.7
2017-May-15 06:30N 48°33' W 123°13'4 8.1
2017-May-15 06:00N 48°37' W 123°15'4 8.1
2017-May-15 05:30N 48°40' W 123°16'4 7.4
2017-May-15 05:00N 48°44' W 123°18'4 7.7
2017-May-15 04:30N 48°47' W 123°21'4 7.3
2017-May-15 04:00N 48°50' W 123°25'4 7.0
2017-May-15 03:27N 48°53' W 123°27'3 7.1
2017-May-15 02:58N 48°56' W 123°31'3 7.0
2017-May-15 02:30N 48°58' W 123°34'3 5.2
2017-May-15 01:53N 49°01' W 123°35'2 3.7
2017-May-15 01:14N 49°04' W 123°34'1 3.7
2017-May-15 00:57N 49°05' W 123°34'2 3.2
2017-May-15 00:20N 49°07' W 123°35'1 3.1
2017-May-14 23:56N 49°08' W 123°36'3 4.6
2017-May-14 23:20N 49°10' W 123°37'2 7.0
2017-May-14 23:00N 49°12' W 123°40'5 7.2
2017-May-14 22:20N 49°15' W 123°46'3 7.4
2017-May-14 21:54N 49°17' W 123°49'28 6.8
2017-May-14 17:52N 49°34' W 124°23'3 7.0
2017-May-14 17:30N 49°36' W 124°26'3 6.8
2017-May-14 17:00N 49°38' W 124°30'3 6.7
2017-May-14 16:30N 49°40' W 124°34'3 6.7
2017-May-14 16:00N 49°42' W 124°38'3 6.6
2017-May-14 15:30N 49°44' W 124°42'3 6.6
2017-May-14 15:00N 49°46' W 124°46'3 6.6
2017-May-14 14:30N 49°48' W 124°50'3 6.7
2017-May-14 14:01N 49°50' W 124°54'3 7.0
2017-May-14 13:30N 49°52' W 124°58'4 7.0
2017-May-14 12:59N 49°55' W 125°03'3 7.0
2017-May-14 12:30N 49°57' W 125°07'4 8.0
2017-May-14 12:01N 49°59' W 125°12'510.4
2017-May-14 11:30N 50°04' W 125°15'4 8.9
2017-May-14 11:00N 50°07' W 125°20'4 7.7
2017-May-14 10:30N 50°11' W 125°22'3 6.9
2017-May-14 10:01N 50°14' W 125°23'4 7.0
2017-May-14 09:28N 50°18' W 125°25'50 5.5
2017-May-14 00:23N 50°32' W 126°40'19 7.8
2017-May-13 21:54N 50°44' W 127°04'4 7.9
2017-May-13 21:21N 50°47' W 127°10'4 7.8
2017-May-13 20:54N 50°49' W 127°14'3 7.7
2017-May-13 20:30N 50°51' W 127°18'4 7.5
2017-May-13 20:00N 50°53' W 127°22'4 8.0
2017-May-13 19:30N 50°56' W 127°27'4 7.3
2017-May-13 19:00N 50°58' W 127°31'3 6.5
2017-May-13 18:30N 51°00' W 127°35'3 6.4
2017-May-13 18:00N 51°03' W 127°39'3 6.3
2017-May-13 17:30N 51°05' W 127°43'3 6.4
2017-May-13 17:00N 51°07' W 127°46'3 6.6
2017-May-13 16:30N 51°09' W 127°50'4 6.7
2017-May-13 15:58N 51°12' W 127°52'10 7.1
2017-May-13 14:35N 51°22' W 127°52'1 7.3
2017-May-13 14:28N 51°23' W 127°52'7 7.3
2017-May-13 13:30N 51°30' W 127°51'4 7.4
2017-May-13 13:01N 51°34' W 127°52'4 7.4
2017-May-13 12:31N 51°37' W 127°54'4 7.3
2017-May-13 12:00N 51°41' W 127°56'4 7.2
2017-May-13 11:30N 51°44' W 127°57'4 7.2
2017-May-13 11:00N 51°48' W 127°57'4 7.2
2017-May-13 10:30N 51°51' W 127°57'4 7.4
2017-May-13 10:00N 51°55' W 127°57'4 7.3
2017-May-13 09:30N 51°59' W 127°56'4 7.4
2017-May-13 08:57N 52°03' W 127°55'3 7.5
2017-May-13 08:29N 52°06' W 127°54'14 5.4
2017-May-13 05:54N 52°18' W 128°06'3 6.9
2017-May-13 05:30N 52°16' W 128°10'5 7.0
2017-May-13 04:46N 52°15' W 128°18'3 7.1
2017-May-13 04:24N 52°15' W 128°23'5 6.8
2017-May-13 03:44N 52°18' W 128°29'4 7.1
2017-May-13 03:14N 52°21' W 128°31'2 7.4
2017-May-13 02:59N 52°23' W 128°31'3 7.4
2017-May-13 02:30N 52°26' W 128°29'  

Dump ship's entire track history